Time;durP1;ratioP1;P1;durP2;ratioP2;P2;SDS_P1;SDS_P2;PMS_P1;PMS_P2;Temp;Humidity;BMP_temperature;BMP_pressure;BME280_temperature;BME280_humidity;BME280_pressure;Samples;Min_cycle;Max_cycle;Signal;HPM_P1;HPM_P2
2022/09/01 00:00:57;;;;;;;3.47;1.70;;;10.60;99.90;9.90;101062;;;;562981;251;25122;-79
2022/09/01 00:03:27;;;;;;;3.90;1.93;;;10.60;99.90;9.90;101062;;;;571637;251;24159;-78
2022/09/01 00:05:56;;;;;;;1.87;1.23;;;10.60;99.90;9.90;101054;;;;571696;251;24086;-79
2022/09/01 00:08:22;;;;;;;1.73;1.63;;;10.60;99.90;9.90;101051;;;;571651;251;24141;-80
2022/09/01 00:10:49;;;;;;;2.27;1.60;;;10.60;99.90;10.00;101056;;;;563156;251;24097;-79
2022/09/01 00:13:17;;;;;;;2.50;1.43;;;10.60;99.90;10.00;101059;;;;563254;251;24097;-79
2022/09/01 00:15:45;;;;;;;1.40;1.30;;;10.60;99.90;10.00;101049;;;;563151;251;24112;-78
2022/09/01 00:18:14;;;;;;;2.23;1.43;;;10.70;99.90;10.00;101050;;;;564009;250;24088;-79
2022/09/01 00:20:45;;;;;;;2.20;1.23;;;10.60;99.90;10.00;101036;;;;564339;250;24105;-82
2022/09/01 00:23:14;;;;;;;2.13;1.50;;;10.70;99.90;10.00;101052;;;;563780;250;24092;-79
2022/09/01 00:25:38;;;;;;;2.17;1.77;;;10.70;99.90;9.90;101047;;;;558794;250;35156;-79
2022/09/01 00:28:06;;;;;;;2.40;1.80;;;10.60;99.90;10.00;101050;;;;567283;250;35169;-79
2022/09/01 00:30:33;;;;;;;1.57;1.47;;;10.70;99.90;10.00;101047;;;;563756;250;24082;-80
2022/09/01 00:33:01;;;;;;;2.73;1.50;;;10.70;99.90;10.00;101032;;;;563336;250;24081;-79
2022/09/01 00:35:29;;;;;;;3.57;1.57;;;10.70;99.90;10.00;101042;;;;563383;250;24084;-79
2022/09/01 00:37:58;;;;;;;1.63;1.20;;;10.70;99.90;10.00;101043;;;;564039;250;24077;-79
2022/09/01 00:40:26;;;;;;;1.27;1.23;;;10.70;99.90;10.00;101040;;;;564638;250;24102;-78
2022/09/01 00:42:54;;;;;;;1.30;1.20;;;10.70;99.90;10.10;101062;;;;564429;250;24076;-79
2022/09/01 00:45:22;;;;;;;2.50;1.27;;;10.70;99.90;10.10;101057;;;;563614;250;24107;-79
2022/09/01 00:47:50;;;;;;;3.90;1.10;;;10.70;99.90;10.20;101069;;;;563540;250;24099;-79
2022/09/01 00:50:21;;;;;;;1.67;1.10;;;10.80;99.90;10.30;101063;;;;563947;250;24150;-83
2022/09/01 00:52:50;;;;;;;1.60;1.13;;;11.00;99.90;10.50;101065;;;;564250;250;24109;-81
2022/09/01 00:55:23;;;;;;;0.80;0.80;;;11.10;99.90;10.60;101069;;;;567080;251;24087;-81
2022/09/01 00:57:54;;;;;;;4.07;0.80;;;11.20;99.90;10.80;101074;;;;563597;251;24074;-82
2022/09/01 01:00:19;;;;;;;1.87;0.70;;;11.40;99.90;10.90;101066;;;;563671;250;24097;-81
2022/09/01 01:02:47;;;;;;;1.10;0.87;;;11.50;99.90;11.00;101071;;;;563851;251;24116;-81
2022/09/01 01:05:15;;;;;;;2.73;0.67;;;11.60;99.90;11.10;101077;;;;563849;250;24092;-81
2022/09/01 01:07:45;;;;;;;0.80;0.80;;;11.80;99.90;11.20;101071;;;;563869;251;24092;-82
2022/09/01 01:10:13;;;;;;;2.43;0.80;;;11.90;99.90;11.30;101075;;;;572172;251;25135;-82
2022/09/01 01:12:42;;;;;;;1.43;0.80;;;11.90;99.90;11.30;101067;;;;566293;251;24101;-79
2022/09/01 01:15:08;;;;;;;1.17;1.00;;;12.00;99.90;11.40;101062;;;;571960;246;24115;-78
2022/09/01 01:17:40;;;;;;;0.80;0.80;;;12.00;99.90;11.50;101063;;;;566436;249;24137;-82
2022/09/01 01:23:12;;;;;;;1.27;0.77;;;12.10;99.90;11.50;101054;;;;563729;251;24135;-83
2022/09/01 01:25:52;;;;;;;0.87;0.87;;;12.20;99.90;11.50;101048;;;;572209;251;24132;-82
2022/09/01 01:28:20;;;;;;;1.90;0.83;;;12.10;99.90;11.50;101046;;;;563146;251;25200;-82
2022/09/01 01:30:51;;;;;;;1.20;0.60;;;12.20;99.90;11.50;101043;;;;573071;249;24141;-80
2022/09/01 01:33:21;;;;;;;1.27;0.70;;;12.20;99.90;11.50;101052;;;;564273;250;24073;-78
2022/09/01 01:35:46;;;;;;;0.63;0.63;;;12.20;99.90;11.60;101045;;;;553181;255;24154;-79
2022/09/01 01:38:15;;;;;;;1.67;0.60;;;12.30;99.90;11.60;101044;;;;556020;254;24166;-79
2022/09/01 01:40:42;;;;;;;0.60;0.60;;;12.30;99.90;11.70;101047;;;;553838;255;24128;-79
2022/09/01 01:43:18;;;;;;;0.70;0.70;;;12.30;99.90;11.70;101042;;;;553859;255;24146;-78
2022/09/01 01:45:38;;;;;;;0.97;0.70;;;12.30;99.90;11.70;101044;;;;553329;255;24318;-78
2022/09/01 01:48:08;;;;;;;0.57;0.57;;;12.40;99.90;11.80;101050;;;;553800;255;24168;-78
2022/09/01 01:50:34;;;;;;;0.50;0.50;;;12.40;99.90;11.80;101036;;;;553506;255;24160;-78
2022/09/01 01:53:02;;;;;;;0.60;0.60;;;12.50;99.90;11.90;101041;;;;553562;255;24140;-79
2022/09/01 01:55:30;;;;;;;1.20;0.47;;;12.50;99.90;11.90;101035;;;;561355;255;24219;-79
2022/09/01 01:58:01;;;;;;;0.37;0.30;;;12.50;99.90;11.90;101037;;;;553203;255;24135;-78
2022/09/01 02:00:29;;;;;;;1.83;0.50;;;12.60;99.90;11.90;101039;;;;561197;255;24165;-78
2022/09/01 02:02:57;;;;;;;0.60;0.60;;;12.60;99.90;12.00;101038;;;;553105;255;24200;-79
2022/09/01 02:05:25;;;;;;;0.60;0.60;;;12.60;99.90;12.00;101036;;;;553297;255;24172;-78
2022/09/01 02:07:54;;;;;;;2.00;0.60;;;12.70;99.90;12.00;101036;;;;552593;255;24215;-77
2022/09/01 02:10:21;;;;;;;0.93;0.90;;;12.70;99.90;12.00;101036;;;;552652;255;24143;-79
2022/09/01 02:12:52;;;;;;;1.27;0.70;;;12.70;99.90;12.00;101031;;;;548230;255;35532;-77
2022/09/01 02:15:16;;;;;;;1.67;0.80;;;12.70;99.90;12.00;101031;;;;552458;255;24149;-81
2022/09/01 02:17:44;;;;;;;0.97;0.80;;;12.70;99.90;12.00;101031;;;;553137;255;24201;-80
2022/09/01 02:20:14;;;;;;;0.50;0.50;;;12.70;99.90;12.00;101027;;;;552974;255;24151;-81
2022/09/01 02:22:42;;;;;;;0.70;0.70;;;12.70;99.90;12.00;101018;;;;553114;255;24172;-79
2022/09/01 02:25:08;;;;;;;0.40;0.40;;;12.60;99.90;11.90;101020;;;;552887;255;24235;-79
2022/09/01 02:27:38;;;;;;;1.70;0.50;;;12.60;99.90;11.90;101020;;;;561554;252;24159;-80
2022/09/01 02:30:10;;;;;;;1.60;0.40;;;12.50;99.90;11.80;101013;;;;562597;251;24201;-81
2022/09/01 02:32:33;;;;;;;0.40;0.40;;;12.50;99.90;11.80;101020;;;;552559;255;24166;-81
2022/09/01 02:35:01;;;;;;;1.27;0.50;;;12.40;99.90;11.70;101013;;;;553356;255;24138;-80
2022/09/01 02:37:29;;;;;;;1.30;0.80;;;12.40;99.90;11.70;101015;;;;553323;255;24147;-78
2022/09/01 02:39:58;;;;;;;1.17;0.67;;;12.40;99.90;11.60;101018;;;;548528;255;35469;-78
2022/09/01 02:42:29;;;;;;;1.90;0.50;;;12.30;99.90;11.60;101013;;;;554569;255;24191;-78
2022/09/01 02:44:59;;;;;;;2.07;0.77;;;12.20;99.90;11.50;101013;;;;554060;255;24190;-78
2022/09/01 02:47:27;;;;;;;2.60;0.60;;;12.20;99.90;11.50;101008;;;;553879;255;24216;-78
2022/09/01 02:49:52;;;;;;;0.57;0.57;;;12.10;99.90;11.40;101014;;;;553701;255;24153;-78
2022/09/01 02:52:20;;;;;;;0.57;0.50;;;12.10;99.90;11.50;101011;;;;553831;255;24131;-78
2022/09/01 02:54:48;;;;;;;0.57;0.57;;;12.10;99.90;11.50;101008;;;;553508;255;24186;-78
2022/09/01 02:57:15;;;;;;;0.60;0.60;;;12.10;99.90;11.50;101015;;;;552680;255;24130;-77
2022/09/01 02:59:44;;;;;;;0.60;0.60;;;12.10;99.90;11.60;101006;;;;553447;255;24155;-81
2022/09/01 03:02:11;;;;;;;0.47;0.40;;;12.20;99.90;11.60;101012;;;;553156;255;24146;-80
2022/09/01 03:04:39;;;;;;;0.43;0.43;;;12.20;99.90;11.60;101005;;;;553335;255;24210;-80
2022/09/01 03:07:07;;;;;;;1.17;0.70;;;12.20;99.90;11.60;101001;;;;553256;255;24142;-80
2022/09/01 03:09:35;;;;;;;1.40;0.67;;;12.20;99.90;11.50;101010;;;;553407;255;24157;-80
2022/09/01 03:12:05;;;;;;;1.70;0.60;;;12.20;99.90;11.50;101014;;;;553270;255;24158;-79
2022/09/01 03:14:31;;;;;;;2.70;0.70;;;12.10;99.90;11.50;101007;;;;553432;255;24142;-79
2022/09/01 03:16:59;;;;;;;0.50;0.50;;;12.10;99.90;11.50;101004;;;;553483;255;24222;-80
2022/09/01 03:19:35;;;;;;;2.70;0.63;;;12.10;99.90;11.50;101013;;;;553119;255;24213;-78
2022/09/01 03:21:59;;;;;;;0.37;0.37;;;12.10;99.90;11.50;101012;;;;552761;255;24165;-82
2022/09/01 03:24:23;;;;;;;0.37;0.37;;;12.10;99.90;11.50;101011;;;;552805;255;24165;-81
2022/09/01 03:26:52;;;;;;;0.93;0.73;;;12.20;99.90;11.60;101007;;;;553232;255;24139;-82
2022/09/01 03:29:19;;;;;;;4.30;0.60;;;12.20;99.90;11.60;101008;;;;552927;251;24201;-80
2022/09/01 03:31:51;;;;;;;1.57;0.70;;;12.20;99.90;11.60;101008;;;;552874;255;24173;-81
2022/09/01 03:34:19;;;;;;;0.60;0.60;;;12.20;99.90;11.60;101007;;;;553136;255;24149;-79
2022/09/01 03:36:48;;;;;;;1.47;0.70;;;12.30;99.90;11.70;101011;;;;552863;255;24224;-81
2022/09/01 03:39:12;;;;;;;1.07;0.70;;;12.40;99.90;11.80;101016;;;;553065;255;24132;-78
2022/09/01 03:41:40;;;;;;;1.07;0.60;;;12.30;99.90;11.80;101008;;;;553307;255;24216;-80
2022/09/01 03:44:12;;;;;;;2.43;0.60;;;12.40;99.90;11.90;101011;;;;553364;255;24189;-79
2022/09/01 03:46:36;;;;;;;0.50;0.50;;;12.50;99.90;11.90;101010;;;;553035;255;24144;-79
2022/09/01 03:49:06;;;;;;;1.07;0.50;;;12.50;99.90;12.00;101009;;;;553246;255;24158;-79
2022/09/01 03:51:32;;;;;;;0.40;0.40;;;12.60;99.90;12.00;101014;;;;561462;252;24140;-79
2022/09/01 03:54:00;;;;;;;0.57;0.57;;;12.60;99.90;12.10;101004;;;;562774;252;24180;-80
2022/09/01 03:56:28;;;;;;;1.63;0.73;;;12.70;99.90;12.10;101000;;;;554083;255;24173;-78
2022/09/01 03:58:56;;;;;;;1.93;0.60;;;12.70;99.90;12.10;101006;;;;561769;252;24175;-79
2022/09/01 04:01:23;;;;;;;0.53;0.53;;;12.70;99.90;12.10;101004;;;;553488;255;24183;-79
2022/09/01 04:03:51;;;;;;;0.60;0.60;;;12.70;99.90;12.10;101020;;;;553517;255;24143;-80
2022/09/01 04:06:21;;;;;;;2.80;0.83;;;12.70;99.90;12.10;101006;;;;553498;255;24178;-80
2022/09/01 04:08:47;;;;;;;0.97;0.93;;;12.70;99.90;12.20;101012;;;;553474;255;24135;-79
2022/09/01 04:11:17;;;;;;;5.60;0.80;;;12.70;99.90;12.10;101020;;;;553295;255;24161;-79
2022/09/01 04:13:43;;;;;;;0.97;0.80;;;12.70;99.90;12.20;101015;;;;553038;255;24253;-77
2022/09/01 04:18:49;;;;;;;1.03;0.77;;;12.80;99.90;12.30;101011;;;;539611;255;24208;-77
2022/09/01 04:21:16;;;;;;;0.50;0.50;;;12.80;99.90;12.30;101008;;;;553121;255;24166;-78
2022/09/01 04:23:45;;;;;;;0.97;0.40;;;12.90;99.90;12.40;101010;;;;553093;255;24241;-77
2022/09/01 04:26:13;;;;;;;0.70;0.70;;;12.90;99.90;12.50;101008;;;;553163;255;24157;-77
2022/09/01 04:28:44;;;;;;;0.60;0.60;;;13.00;99.90;12.50;101008;;;;553018;255;24153;-77
2022/09/01 04:31:17;;;;;;;0.40;0.40;;;13.10;99.90;12.60;101020;;;;553380;255;24147;-77
2022/09/01 04:33:43;;;;;;;1.50;0.73;;;13.20;99.90;12.60;101014;;;;553311;255;24175;-80
2022/09/01 04:36:18;;;;;;;1.70;0.77;;;13.20;99.90;12.70;101014;;;;547798;255;35513;-78
2022/09/01 04:38:49;;;;;;;1.90;0.60;;;13.20;99.90;12.70;101017;;;;553102;255;24199;-81
2022/09/01 04:41:19;;;;;;;2.27;0.90;;;13.30;99.90;12.70;101012;;;;553124;255;24158;-80
2022/09/01 04:43:50;;;;;;;1.90;0.60;;;13.40;99.90;12.80;101011;;;;553235;255;24133;-79
2022/09/01 04:46:19;;;;;;;0.80;0.70;;;13.30;99.90;12.90;101007;;;;561483;252;24168;-82
2022/09/01 04:48:50;;;;;;;0.80;0.80;;;13.40;99.90;13.00;101010;;;;561843;251;24140;-79
2022/09/01 04:51:15;;;;;;;0.60;0.60;;;13.50;99.90;13.10;101007;;;;552998;255;24189;-80
2022/09/01 04:53:47;;;;;;;0.60;0.60;;;13.60;99.90;13.10;101009;;;;553391;255;24170;-81
2022/09/01 04:56:10;;;;;;;0.87;0.53;;;13.70;99.90;13.20;101011;;;;552751;255;24204;-81
2022/09/01 04:58:41;;;;;;;0.67;0.67;;;13.80;99.90;13.20;101009;;;;552903;255;24196;-81
2022/09/01 05:01:18;;;;;;;0.80;0.60;;;13.80;99.90;13.30;101016;;;;560743;252;24203;-81
2022/09/01 05:03:47;;;;;;;0.40;0.40;;;13.80;99.90;13.30;101025;;;;553587;253;24136;-80
2022/09/01 05:06:14;;;;;;;0.80;0.47;;;13.80;99.90;13.30;101019;;;;554285;255;24158;-82
2022/09/01 05:08:45;;;;;;;2.27;0.77;;;13.80;99.90;13.40;101018;;;;553430;255;24190;-81
2022/09/01 05:11:10;;;;;;;0.60;0.60;;;13.90;99.90;13.50;101023;;;;553683;255;24158;-82
2022/09/01 05:13:39;;;;;;;2.13;0.70;;;14.40;99.90;14.00;101017;;;;553606;255;24145;-79
2022/09/01 05:16:11;;;;;;;0.37;0.37;;;15.00;99.90;14.70;101022;;;;553639;255;24138;-81
2022/09/01 05:18:35;;;;;;;0.80;0.80;;;15.00;99.90;14.80;101023;;;;553424;255;24166;-80
2022/09/01 05:21:04;;;;;;;2.53;0.50;;;15.20;99.90;14.60;101025;;;;553405;255;24201;-79
2022/09/01 05:23:32;;;;;;;0.67;0.57;;;15.10;99.90;14.50;101022;;;;553079;255;24142;-80
2022/09/01 05:25:59;;;;;;;0.40;0.40;;;15.00;99.90;14.70;101023;;;;553268;255;24142;-81
2022/09/01 05:28:27;;;;;;;2.30;0.87;;;15.10;99.90;15.50;101028;;;;553194;255;24183;-80
2022/09/01 05:30:55;;;;;;;0.83;0.50;;;15.80;99.90;16.10;101038;;;;553236;255;24159;-79
2022/09/01 05:33:23;;;;;;;0.63;0.63;;;16.40;99.90;17.60;101035;;;;553533;255;24169;-80
2022/09/01 05:35:54;;;;;;;2.27;1.00;;;19.20;99.90;19.00;101033;;;;553483;255;24136;-79
2022/09/01 05:38:24;;;;;;;1.73;1.27;;;19.80;99.90;19.50;101039;;;;553455;255;24167;-77
2022/09/01 05:40:58;;;;;;;0.90;0.90;;;19.70;99.90;19.20;101035;;;;552970;251;24142;-79
2022/09/01 05:43:26;;;;;;;3.60;0.67;;;19.70;99.90;19.30;101035;;;;553341;255;24154;-79
2022/09/01 05:45:54;;;;;;;0.60;0.60;;;19.80;99.90;18.90;101031;;;;553201;255;24149;-79
2022/09/01 05:48:22;;;;;;;2.33;0.70;;;19.50;99.90;20.20;101032;;;;553315;255;24129;-79
2022/09/01 05:50:49;;;;;;;0.63;0.50;;;20.30;99.90;22.40;101035;;;;553300;255;24199;-80
2022/09/01 05:53:17;;;;;;;0.60;0.50;;;22.20;99.90;24.50;101039;;;;553375;255;24150;-79
2022/09/01 05:55:45;;;;;;;0.93;0.60;;;24.40;99.90;26.20;101038;;;;552178;255;24139;-78
2022/09/01 05:58:15;;;;;;;1.33;0.60;;;27.60;99.90;27.40;101040;;;;552996;255;23195;-80
2022/09/01 06:00:46;;;;;;;1.70;0.30;;;28.80;95.70;28.70;101047;;;;552899;255;25197;-81
2022/09/01 06:03:14;;;;;;;1.63;0.40;;;28.70;95.60;29.40;101041;;;;552689;255;23166;-79
2022/09/01 06:05:38;;;;;;;0.50;0.40;;;29.70;91.50;29.00;101046;;;;560754;255;23181;-81
2022/09/01 06:08:07;;;;;;;1.03;0.30;;;29.70;84.50;28.50;101038;;;;553126;255;24154;-81
2022/09/01 06:10:36;;;;;;;1.25;0.40;;;29.10;85.30;29.60;101044;;;;552994;255;23172;-80
2022/09/01 06:13:02;;;;;;;0.80;0.43;;;29.80;84.70;30.90;101050;;;;552872;255;23244;-79
2022/09/01 06:15:31;;;;;;;1.05;0.75;;;31.00;78.90;32.40;101041;;;;552916;253;23151;-80
2022/09/01 06:18:02;;;;;;;0.60;0.60;;;33.60;66.80;33.50;101048;;;;554179;255;23156;-79
2022/09/01 06:20:28;;;;;;;2.70;0.50;;;34.40;62.40;34.30;101063;;;;553414;255;23157;-81
2022/09/01 06:22:56;;;;;;;0.43;0.43;;;34.30;56.90;33.80;101053;;;;553654;255;23145;-80
2022/09/01 06:25:29;;;;;;;0.60;0.60;;;34.20;56.80;34.20;101052;;;;553319;255;23200;-82
2022/09/01 06:27:52;;;;;;;1.33;0.50;;;34.60;57.80;35.10;101054;;;;553223;255;24151;-80
2022/09/01 06:30:21;;;;;;;0.62;0.57;;;35.30;56.20;35.90;101061;;;;553301;255;23175;-81
2022/09/01 06:32:48;;;;;;;0.50;0.40;;;36.10;54.30;36.60;101065;;;;553448;255;23171;-82
2022/09/01 06:35:16;;;;;;;1.65;0.40;;;36.70;52.00;36.20;101065;;;;553158;255;23156;-82
2022/09/01 06:37:46;;;;;;;0.50;0.50;;;36.80;50.50;34.10;101068;;;;553307;255;23183;-82
2022/09/01 06:40:16;;;;;;;0.47;0.40;;;35.30;49.40;31.80;101071;;;;552994;255;23169;-80
2022/09/01 06:42:40;;;;;;;0.85;0.50;;;31.40;55.20;29.90;101068;;;;552442;255;23173;-79
2022/09/01 06:45:13;;;;;;;1.85;0.62;;;29.60;56.60;28.20;101072;;;;553346;255;24242;-81
2022/09/01 06:47:37;;;;;;;1.35;0.50;;;29.60;56.60;26.60;101073;;;;552665;255;23181;-82
2022/09/01 06:50:12;;;;;;;0.60;0.60;;;28.00;59.30;25.40;101073;;;;553375;255;23167;-79
2022/09/01 06:52:42;;;;;;;0.70;0.30;;;26.50;62.20;24.50;101070;;;;552782;255;23140;-83
2022/09/01 06:55:12;;;;;;;0.33;0.33;;;25.40;65.40;23.70;101074;;;;563190;251;23179;-80
2022/09/01 06:57:44;;;;;;;0.57;0.57;;;24.50;67.50;24.50;101074;;;;561525;255;24133;-79
2022/09/01 07:00:14;;;;;;;0.53;0.40;;;24.60;71.00;25.50;101081;;;;552330;255;23196;-79
2022/09/01 07:02:38;;;;;;;1.40;0.57;;;25.40;69.10;26.90;101081;;;;552976;255;23150;-79
2022/09/01 07:05:09;;;;;;;3.03;0.70;;;27.80;64.00;27.90;101073;;;;552894;255;23169;-83
2022/09/01 07:07:33;;;;;;;2.10;0.43;;;27.80;63.90;28.40;101079;;;;560811;255;23169;-79
2022/09/01 07:10:02;;;;;;;0.67;0.47;;;30.20;59.30;30.60;101082;;;;552980;251;23164;-79
2022/09/01 07:12:30;;;;;;;2.53;0.50;;;30.10;59.10;32.30;101099;;;;553076;255;23251;-79
2022/09/01 07:15:00;;;;;;;0.65;0.50;;;32.00;55.40;32.10;101079;;;;552944;255;23248;-80
2022/09/01 07:17:29;;;;;;;0.55;0.55;;;32.30;53.40;31.30;101089;;;;552810;255;24215;-82
2022/09/01 07:20:03;;;;;;;0.85;0.62;;;31.90;53.10;30.20;101080;;;;552670;255;23164;-81
2022/09/01 07:22:25;;;;;;;1.15;0.50;;;30.40;55.00;29.70;101092;;;;552273;255;24310;-78
2022/09/01 07:24:58;;;;;;;1.92;0.50;;;29.80;55.60;29.20;101088;;;;553079;255;23251;-82
2022/09/01 07:27:26;;;;;;;2.20;0.77;;;29.70;55.50;28.90;101093;;;;552528;254;23173;-81
2022/09/01 07:29:56;;;;;;;0.90;0.90;;;29.40;56.20;28.80;101091;;;;553539;255;23160;-81
2022/09/01 07:32:22;;;;;;;2.72;0.60;;;29.10;57.40;29.20;101092;;;;553584;255;23184;-82
2022/09/01 07:34:52;;;;;;;0.98;0.50;;;29.30;57.40;30.60;101102;;;;553588;255;23227;-79
2022/09/01 07:37:20;;;;;;;0.50;0.50;;;30.30;57.00;32.40;101096;;;;553380;255;24228;-79
2022/09/01 07:39:45;;;;;;;1.30;0.70;;;31.90;54.50;33.90;101099;;;;553102;255;23165;-82
2022/09/01 07:42:15;;;;;;;1.52;1.42;;;35.10;49.60;35.40;101110;;;;553530;255;23168;-82
2022/09/01 07:44:43;;;;;;;0.62;0.62;;;36.80;46.80;37.10;101107;;;;553430;255;23145;-81
2022/09/01 07:47:20;;;;;;;0.70;0.70;;;36.70;46.70;38.00;101107;;;;553550;255;24185;-82
2022/09/01 07:49:38;;;;;;;0.93;0.80;;;38.00;45.10;38.90;101111;;;;552699;255;23192;-81
2022/09/01 07:52:07;;;;;;;4.53;0.95;;;39.30;42.60;38.90;101127;;;;553140;251;23227;-82
2022/09/01 07:54:36;;;;;;;2.42;0.90;;;39.20;42.50;36.20;101122;;;;553329;255;23160;-82
2022/09/01 07:57:03;;;;;;;1.00;0.90;;;37.70;42.90;33.50;101131;;;;553512;255;23193;-82
2022/09/01 07:59:32;;;;;;;8.65;1.20;;;35.40;44.60;31.00;101128;;;;553778;255;23159;-80
2022/09/01 08:01:59;;;;;;;3.80;0.88;;;32.90;47.50;29.00;101127;;;;553661;255;23176;-77
2022/09/01 08:04:27;;;;;;;1.95;0.62;;;30.70;50.80;27.70;101120;;;;553363;255;24193;-79
2022/09/01 08:06:54;;;;;;;0.80;0.80;;;28.90;54.20;29.10;101127;;;;553035;255;24278;-78
2022/09/01 08:09:22;;;;;;;1.62;0.80;;;29.10;55.50;31.50;101127;;;;552898;255;24154;-80
2022/09/01 08:11:51;;;;;;;2.72;0.77;;;31.00;53.00;33.50;101129;;;;552608;255;23180;-82
2022/09/01 08:14:18;;;;;;;0.80;0.77;;;33.00;50.90;35.40;101125;;;;552905;255;23164;-81
2022/09/01 08:16:46;;;;;;;0.70;0.70;;;35.10;47.10;37.30;101135;;;;553397;255;23189;-81
2022/09/01 08:19:14;;;;;;;1.05;0.90;;;37.00;45.50;38.30;101130;;;;553641;255;23142;-80
2022/09/01 08:21:42;;;;;;;0.65;0.60;;;38.40;43.00;38.30;101136;;;;554035;255;23177;-79
2022/09/01 08:24:10;;;;;;;0.50;0.50;;;38.80;39.70;38.60;101144;;;;554075;255;23178;-78
2022/09/01 08:26:42;;;;;;;0.50;0.50;;;39.00;38.00;38.10;101144;;;;554326;255;23195;-77
2022/09/01 08:29:11;;;;;;;1.02;0.60;;;38.30;39.10;37.50;101144;;;;553523;255;23218;-78
2022/09/01 08:31:35;;;;;;;0.50;0.50;;;38.30;39.10;36.00;101141;;;;553157;255;24191;-80
2022/09/01 08:34:04;;;;;;;0.85;0.82;;;37.20;40.30;33.80;101148;;;;553182;255;24182;-76
2022/09/01 08:36:31;;;;;;;0.88;0.60;;;35.50;42.10;33.10;101154;;;;553244;255;23177;-82
2022/09/01 08:39:02;;;;;;;0.57;0.57;;;34.20;44.20;32.50;101148;;;;553250;254;24188;-79
2022/09/01 08:41:45;;;;;;;1.90;1.80;;;33.30;44.30;33.60;101149;;;;554085;255;23228;-77
2022/09/01 08:44:34;;;;;;;0.40;0.40;;;33.80;43.40;35.00;101147;;;;553999;255;23153;-83
2022/09/01 08:47:05;;;;;;;0.40;0.40;;;36.70;40.70;36.80;101143;;;;553338;255;23180;-78
2022/09/01 08:49:33;;;;;;;0.60;0.60;;;36.70;40.70;37.70;101144;;;;553807;255;23165;-80
2022/09/01 08:52:25;;;;;;;3.30;0.60;;;37.90;39.80;36.70;101152;;;;553741;255;23176;-80
2022/09/01 08:55:00;;;;;;;1.25;0.70;;;35.60;41.70;33.70;101141;;;;554038;255;24198;-79
2022/09/01 08:57:42;;;;;;;0.57;0.57;;;35.50;41.70;31.20;101140;;;;553553;255;23189;-79
2022/09/01 09:00:12;;;;;;;2.28;0.60;;;33.20;43.90;31.40;101134;;;;563025;251;23217;-79
2022/09/01 09:03:05;;;;;;;2.05;0.50;;;32.20;46.30;33.30;101139;;;;561807;255;24162;-78
2022/09/01 09:05:35;;;;;;;1.17;0.65;;;33.30;46.00;33.50;101138;;;;553446;255;23146;-81
2022/09/01 09:08:36;;;;;;;0.40;0.40;;;34.20;43.10;31.20;101148;;;;553062;255;24207;-81
2022/09/01 09:11:10;;;;;;;0.50;0.50;;;32.70;43.50;29.80;101140;;;;561918;251;23159;-78
2022/09/01 09:14:05;;;;;;;1.45;0.52;;;30.90;46.50;31.50;101140;;;;552610;255;23226;-79
2022/09/01 09:16:36;;;;;;;9.13;1.15;;;31.70;46.60;33.90;101136;;;;561144;251;23147;-79
2022/09/01 09:19:24;;;;;;;0.43;0.37;;;33.80;44.60;35.90;101141;;;;553149;255;23181;-79
2022/09/01 09:21:52;;;;;;;0.90;0.80;;;35.90;43.00;37.40;101149;;;;553049;255;24200;-81
2022/09/01 09:24:48;;;;;;;0.60;0.60;;;37.70;40.30;36.80;101142;;;;553092;255;23188;-81
2022/09/01 09:27:33;;;;;;;0.65;0.50;;;38.00;39.00;33.40;101147;;;;553594;255;24224;-80
2022/09/01 09:30:03;;;;;;;3.10;0.93;;;35.70;41.30;30.90;101148;;;;553088;255;24182;-80
2022/09/01 09:32:59;;;;;;;0.57;0.50;;;33.20;45.80;29.20;101145;;;;561326;251;23223;-79
2022/09/01 09:35:35;;;;;;;1.25;0.55;;;31.10;48.30;27.80;101137;;;;553234;255;24226;-78
2022/09/01 09:38:18;;;;;;;1.80;0.50;;;29.30;50.70;28.40;101149;;;;553150;255;23177;-79
2022/09/01 09:41:01;;;;;;;1.47;0.70;;;29.10;52.90;27.90;101153;;;;561404;255;23162;-79
2022/09/01 09:43:29;;;;;;;0.53;0.43;;;28.80;54.20;26.60;101142;;;;547918;255;35620;-78
2022/09/01 09:46:25;;;;;;;1.77;0.60;;;27.80;54.50;26.10;101146;;;;553003;255;23187;-80
2022/09/01 09:49:24;;;;;;;0.30;0.30;;;27.00;55.90;26.10;101145;;;;552263;255;23216;-79
2022/09/01 09:51:57;;;;;;;0.53;0.30;;;26.70;55.70;26.60;101144;;;;554673;255;24140;-80
2022/09/01 09:54:25;;;;;;;1.80;0.30;;;27.00;60.80;26.40;101144;;;;551803;255;23172;-81
2022/09/01 09:57:10;;;;;;;0.33;0.30;;;27.00;60.70;25.50;101148;;;;553871;255;23195;-81
2022/09/01 09:59:36;;;;;;;0.40;0.40;;;26.40;59.10;24.40;101154;;;;553549;255;23180;-80
2022/09/01 10:02:24;;;;;;;0.20;0.20;;;25.40;66.40;23.10;101151;;;;553089;255;24133;-77
2022/09/01 10:04:54;;;;;;;0.40;0.37;;;24.20;70.30;22.10;101155;;;;547803;255;24157;-81
2022/09/01 10:07:27;;;;;;;0.40;0.40;;;23.00;76.30;21.40;101150;;;;553513;255;24154;-80
2022/09/01 10:09:59;;;;;;;0.37;0.30;;;22.20;76.90;21.00;101151;;;;553138;255;23172;-79
2022/09/01 10:12:27;;;;;;;0.30;0.30;;;21.60;79.70;20.70;101161;;;;552223;255;23198;-78
2022/09/01 10:14:54;;;;;;;0.47;0.30;;;21.30;79.60;20.40;101168;;;;552876;255;24154;-79
2022/09/01 10:17:33;;;;;;;0.20;0.20;;;20.90;79.80;19.90;101164;;;;553146;255;24138;-79
2022/09/01 10:20:04;;;;;;;1.37;0.57;;;20.50;83.70;19.20;101161;;;;547946;255;35584;-78
2022/09/01 10:22:27;;;;;;;4.13;0.83;;;19.80;89.90;18.80;101157;;;;553075;255;24183;-78
2022/09/01 10:24:55;;;;;;;0.87;0.37;;;19.40;92.80;18.60;101158;;;;553336;255;24138;-78
2022/09/01 10:27:26;;;;;;;0.40;0.37;;;19.10;97.60;18.30;101146;;;;553043;255;24241;-79
2022/09/01 10:29:56;;;;;;;2.17;0.90;;;18.80;99.90;18.30;101153;;;;552937;251;24245;-79
2022/09/01 10:32:24;;;;;;;2.73;0.97;;;18.70;99.90;18.40;101147;;;;552534;255;24230;-80
2022/09/01 10:34:56;;;;;;;0.83;0.83;;;18.80;99.90;18.50;101139;;;;553192;255;24164;-80
2022/09/01 10:37:24;;;;;;;0.40;0.40;;;19.00;99.90;18.70;101153;;;;561365;255;24219;-79
2022/09/01 10:40:13;;;;;;;0.80;0.60;;;19.20;99.90;18.90;101144;;;;553164;255;24132;-79
2022/09/01 10:42:46;;;;;;;0.83;0.47;;;19.40;99.90;19.00;101142;;;;553473;255;24176;-79
2022/09/01 10:45:37;;;;;;;1.83;0.67;;;19.50;99.90;19.00;101141;;;;553489;251;24154;-78
2022/09/01 10:48:24;;;;;;;1.13;0.57;;;19.50;99.90;18.90;101150;;;;553358;255;24146;-80
2022/09/01 10:50:55;;;;;;;0.80;0.60;;;19.50;99.90;18.70;101147;;;;553615;255;24142;-76
2022/09/01 10:53:33;;;;;;;0.40;0.40;;;19.20;99.90;18.70;101139;;;;553033;255;24177;-82
2022/09/01 10:56:11;;;;;;;1.53;0.60;;;19.20;99.90;18.70;101132;;;;561391;252;24251;-79
2022/09/01 10:59:07;;;;;;;4.03;0.63;;;19.20;99.90;18.70;101136;;;;553106;255;24136;-78
2022/09/01 11:01:45;;;;;;;0.70;0.70;;;19.10;99.90;18.60;101143;;;;553033;253;24163;-78
2022/09/01 11:04:31;;;;;;;1.97;0.50;;;19.10;99.90;18.60;101155;;;;561694;255;24130;-78
2022/09/01 11:07:08;;;;;;;1.47;0.60;;;19.10;99.90;18.70;101144;;;;553761;255;24157;-78
2022/09/01 11:09:39;;;;;;;2.33;0.50;;;19.10;99.90;18.80;101147;;;;550920;255;24189;-78
2022/09/01 11:12:43;;;;;;;1.27;0.23;;;19.20;99.90;18.90;101149;;;;561163;255;24147;-77
2022/09/01 11:15:14;;;;;;;0.40;0.30;;;19.30;99.90;18.80;101153;;;;553128;255;23212;-77
2022/09/01 11:17:51;;;;;;;0.57;0.20;;;19.30;99.90;18.70;101152;;;;561760;251;24224;-81
2022/09/01 11:20:28;;;;;;;1.07;0.30;;;19.20;99.90;18.70;101144;;;;561484;251;24166;-79
2022/09/01 11:23:23;;;;;;;1.77;0.33;;;19.20;99.90;18.80;101141;;;;552926;255;24150;-80
2022/09/01 11:25:57;;;;;;;1.23;0.50;;;19.20;99.90;19.00;101142;;;;553451;255;24238;-77
2022/09/01 11:28:31;;;;;;;0.30;0.30;;;19.40;98.50;19.00;101139;;;;552834;255;24282;-79
2022/09/01 11:30:59;;;;;;;0.30;0.30;;;19.50;96.50;19.00;101146;;;;552961;255;24191;-80